Time,TemperatureF,DewpointF,PressureIn,WindDirection,WindDirectionDegrees,WindSpeedMPH,WindSpeedGustMPH,Humidity,HourlyPrecipIn,Conditions,Clouds,dailyrainin,SoftwareType,DateUTC
2016-07-28 00:00:00,79.0,74.5,29.90,West,259,0.0,0.0,86,0.00,,---,0.00,VWS V15.00,2016-07-28 04:00:00,
2016-07-28 00:01:00,79.0,74.5,29.90,West,259,0.0,0.0,86,0.00,,---,0.00,VWS V15.00,2016-07-28 04:01:00,
2016-07-28 00:10:00,79.0,74.5,29.90,WSW,258,0.0,0.0,86,0.00,,---,0.00,VWS V15.00,2016-07-28 04:10:00,
2016-07-28 00:11:00,79.0,74.5,29.90,WSW,258,0.0,0.0,86,0.00,,---,0.00,VWS V15.00,2016-07-28 04:11:00,
2016-07-28 00:20:00,79.2,74.3,29.89,West,259,0.0,0.0,85,0.00,,---,0.00,VWS V15.00,2016-07-28 04:20:00,
2016-07-28 00:21:00,79.2,74.3,29.89,West,259,0.0,0.0,85,0.00,,---,0.00,VWS V15.00,2016-07-28 04:21:00,
2016-07-28 00:30:00,79.2,74.3,29.89,West,259,0.0,0.0,85,0.00,,---,0.00,VWS V15.00,2016-07-28 04:30:00,
2016-07-28 00:31:00,79.2,74.3,29.89,West,259,0.0,0.0,85,0.00,,---,0.00,VWS V15.00,2016-07-28 04:31:00,
2016-07-28 00:40:00,79.1,74.2,29.89,West,259,0.0,0.0,85,0.00,,---,0.00,VWS V15.00,2016-07-28 04:40:00,
2016-07-28 00:41:00,79.1,74.2,29.89,West,259,0.0,0.0,85,0.00,,---,0.00,VWS V15.00,2016-07-28 04:41:00,
2016-07-28 00:50:00,78.9,74.7,29.89,WSW,258,0.0,0.0,87,0.00,,---,0.00,VWS V15.00,2016-07-28 04:50:00,
2016-07-28 00:51:00,78.9,74.7,29.89,WSW,258,0.0,0.0,87,0.00,,---,0.00,VWS V15.00,2016-07-28 04:51:00,
2016-07-28 01:00:00,78.5,74.3,29.89,West,259,0.0,0.0,87,0.00,,---,0.00,VWS V15.00,2016-07-28 05:00:00,
2016-07-28 01:01:00,78.5,74.3,29.89,West,259,0.0,0.0,87,0.00,,---,0.00,VWS V15.00,2016-07-28 05:01:00,
2016-07-28 01:10:00,78.2,74.4,29.88,WSW,258,0.0,0.0,88,0.00,,---,0.00,VWS V15.00,2016-07-28 05:10:00,
2016-07-28 01:20:00,78.1,74.3,29.88,West,259,0.0,0.0,88,0.00,,---,0.00,VWS V15.00,2016-07-28 05:20:00,
2016-07-28 01:21:00,78.1,74.3,29.88,West,259,0.0,0.0,88,0.00,,---,0.00,VWS V15.00,2016-07-28 05:21:00,
2016-07-28 01:30:00,78.0,74.2,29.88,West,259,0.0,0.0,88,0.00,,---,0.00,VWS V15.00,2016-07-28 05:30:00,
2016-07-28 01:40:00,77.9,74.4,29.88,WSW,258,0.0,0.0,89,0.00,,---,0.00,VWS V15.00,2016-07-28 05:40:00,
2016-07-28 01:41:00,77.9,74.4,29.88,WSW,258,0.0,0.0,89,0.00,,---,0.00,VWS V15.00,2016-07-28 05:41:00,
2016-07-28 01:50:00,77.8,74.6,29.88,West,259,0.0,0.0,90,0.00,,---,0.00,VWS V15.00,2016-07-28 05:50:00,
2016-07-28 01:51:00,77.8,74.6,29.88,West,259,0.0,0.0,90,0.00,,---,0.00,VWS V15.00,2016-07-28 05:51:00,
2016-07-28 02:00:00,77.5,74.0,29.88,West,259,0.0,0.0,89,0.00,,---,0.00,VWS V15.00,2016-07-28 06:00:00,
2016-07-28 02:01:00,77.5,74.0,29.88,West,259,0.0,0.0,89,0.00,,---,0.00,VWS V15.00,2016-07-28 06:01:00,
2016-07-28 02:10:00,77.4,74.6,29.88,WSW,258,0.0,0.0,91,0.00,,---,0.00,VWS V15.00,2016-07-28 06:10:00,
2016-07-28 02:11:00,77.4,74.6,29.88,WSW,258,0.0,0.0,91,0.00,,---,0.00,VWS V15.00,2016-07-28 06:11:00,
2016-07-28 02:20:00,77.2,74.4,29.88,WSW,258,0.0,0.0,91,0.00,,---,0.00,VWS V15.00,2016-07-28 06:20:00,
2016-07-28 02:21:00,77.2,74.4,29.88,WSW,258,0.0,0.0,91,0.00,,---,0.00,VWS V15.00,2016-07-28 06:21:00,
2016-07-28 02:30:00,77.3,74.5,29.87,WSW,258,0.0,0.0,91,0.00,,---,0.00,VWS V15.00,2016-07-28 06:30:00,
2016-07-28 02:31:00,77.3,74.5,29.87,WSW,258,0.0,0.0,91,0.00,,---,0.00,VWS V15.00,2016-07-28 06:31:00,
2016-07-28 02:40:00,77.5,74.7,29.87,West,259,0.0,0.0,91,0.00,,---,0.00,VWS V15.00,2016-07-28 06:40:00,
2016-07-28 02:41:00,77.5,74.7,29.87,West,259,0.0,0.0,91,0.00,,---,0.00,VWS V15.00,2016-07-28 06:41:00,
2016-07-28 02:50:00,77.4,74.2,29.86,WSW,258,0.0,0.0,90,0.00,,---,0.00,VWS V15.00,2016-07-28 06:50:00,
2016-07-28 02:51:00,77.4,74.2,29.86,WSW,258,0.0,0.0,90,0.00,,---,0.00,VWS V15.00,2016-07-28 06:51:00,
2016-07-28 03:01:00,77.5,74.3,29.86,West,259,0.0,0.0,90,0.00,,---,0.00,VWS V15.00,2016-07-28 07:01:00,
2016-07-28 03:10:00,77.6,74.8,29.86,SSE,148,0.0,0.0,91,0.00,,---,0.00,VWS V15.00,2016-07-28 07:10:00,
2016-07-28 03:21:00,77.6,74.8,29.86,SSE,148,0.0,0.0,91,0.00,,---,0.00,VWS V15.00,2016-07-28 07:21:00,
2016-07-28 03:30:00,77.6,74.4,29.85,ESE,112,2.0,6.0,90,0.00,,---,0.00,VWS V15.00,2016-07-28 07:30:00,
2016-07-28 03:41:00,76.9,73.8,29.85,East,101,1.0,6.0,90,0.00,,---,0.00,VWS V15.00,2016-07-28 07:41:00,
2016-07-28 03:51:00,76.0,73.2,29.85,East,93,1.0,4.0,91,0.00,,---,0.00,VWS V15.00,2016-07-28 07:51:00,
2016-07-28 04:01:00,75.3,72.5,29.85,East,94,0.0,2.0,91,0.00,,---,0.00,VWS V15.00,2016-07-28 08:01:00,
2016-07-28 04:10:00,74.9,72.4,29.85,ESE,107,0.0,0.0,92,0.00,,---,0.00,VWS V15.00,2016-07-28 08:10:00,
2016-07-28 04:20:00,74.6,72.4,29.85,SSW,200,3.0,3.0,93,0.00,,---,0.00,VWS V15.00,2016-07-28 08:20:00,
2016-07-28 04:31:00,74.1,71.9,29.85,SSE,164,0.0,6.0,93,0.00,,---,0.00,VWS V15.00,2016-07-28 08:31:00,
2016-07-28 04:41:00,73.9,72.1,29.85,SSE,155,0.0,0.0,94,0.00,,---,0.00,VWS V15.00,2016-07-28 08:41:00,
2016-07-28 04:50:00,73.8,72.0,29.84,SSE,163,0.0,0.0,94,0.00,,---,0.00,VWS V15.00,2016-07-28 08:50:00,
2016-07-28 05:01:00,73.7,71.9,29.84,SSE,148,2.0,3.0,94,0.00,,---,0.00,VWS V15.00,2016-07-28 09:01:00,
2016-07-28 05:11:00,73.5,72.0,29.85,East,94,1.0,4.0,95,0.00,,---,0.00,VWS V15.00,2016-07-28 09:11:00,
2016-07-28 05:21:00,73.4,71.9,29.86,SW,221,2.0,5.0,95,0.01,,---,0.01,VWS V15.00,2016-07-28 09:21:00,
2016-07-28 05:30:00,72.9,71.7,29.86,SSW,210,0.0,7.0,96,0.25,,---,0.25,VWS V15.00,2016-07-28 09:30:00,
2016-07-28 05:40:00,72.9,72.0,29.87,SW,231,0.0,8.0,97,0.53,,---,0.53,VWS V15.00,2016-07-28 09:40:00,
2016-07-28 05:50:00,72.9,72.3,29.86,SW,233,0.0,1.0,98,0.76,,---,0.76,VWS V15.00,2016-07-28 09:50:00,
2016-07-28 06:01:00,72.8,72.5,29.86,SW,233,0.0,1.0,99,0.84,,---,0.84,VWS V15.00,2016-07-28 10:01:00,
2016-07-28 06:10:00,72.7,72.4,29.87,North,358,0.0,0.0,99,0.87,,---,0.87,VWS V15.00,2016-07-28 10:10:00,
2016-07-28 06:21:00,72.8,72.5,29.87,NE,44,0.0,3.0,99,0.88,,---,0.88,VWS V15.00,2016-07-28 10:21:00,
2016-07-28 06:31:00,72.9,72.6,29.87,NNE,26,0.0,0.0,99,0.90,,---,0.91,VWS V15.00,2016-07-28 10:31:00,
2016-07-28 06:40:00,72.8,72.5,29.88,NE,39,0.0,0.0,99,0.67,,---,0.92,VWS V15.00,2016-07-28 10:40:00,
2016-07-28 06:51:00,72.6,72.6,29.88,South,175,0.0,0.0,100,0.40,,---,0.93,VWS V15.00,2016-07-28 10:51:00,
2016-07-28 07:01:00,72.6,72.6,29.88,South,174,0.0,0.0,100,0.18,,---,0.94,VWS V15.00,2016-07-28 11:01:00,
2016-07-28 07:10:00,72.6,72.6,29.88,South,174,0.0,0.0,100,0.10,,---,0.94,VWS V15.00,2016-07-28 11:10:00,
2016-07-28 07:21:00,72.5,72.5,29.88,South,174,0.0,0.0,100,0.08,,---,0.95,VWS V15.00,2016-07-28 11:21:00,
2016-07-28 07:30:00,72.4,72.4,29.88,South,175,0.0,0.0,100,0.09,,---,0.97,VWS V15.00,2016-07-28 11:30:00,
2016-07-28 07:41:00,72.3,72.3,29.88,South,174,0.0,0.0,100,0.12,,---,1.03,VWS V15.00,2016-07-28 11:41:00,
2016-07-28 07:50:00,72.3,72.3,29.89,South,177,0.0,0.0,100,0.16,,---,1.08,VWS V15.00,2016-07-28 11:50:00,
2016-07-28 08:01:00,72.3,72.3,29.88,SSW,210,0.0,0.0,100,0.20,,---,1.13,VWS V15.00,2016-07-28 12:01:00,
2016-07-28 08:10:00,72.2,72.2,29.87,South,172,2.0,4.0,100,0.22,,---,1.16,VWS V15.00,2016-07-28 12:10:00,
2016-07-28 08:21:00,72.2,72.2,29.86,SSE,150,0.0,3.0,100,0.25,,---,1.19,VWS V15.00,2016-07-28 12:21:00,
2016-07-28 08:30:00,71.7,71.7,29.85,SSE,166,2.0,7.0,100,0.25,,---,1.20,VWS V15.00,2016-07-28 12:30:00,
2016-07-28 08:41:00,71.9,71.9,29.84,SSE,148,5.0,6.0,100,0.24,,---,1.21,VWS V15.00,2016-07-28 12:41:00,
2016-07-28 08:50:00,71.9,71.9,29.84,SSW,194,3.0,7.0,100,0.18,,---,1.21,VWS V15.00,2016-07-28 12:50:00,
2016-07-28 09:00:00,71.8,71.8,29.84,SW,226,0.0,6.0,100,0.13,,---,1.21,VWS V15.00,2016-07-28 13:00:00,
2016-07-28 09:10:00,72.0,72.0,29.86,NW,316,0.0,0.0,100,0.08,,---,1.21,VWS V15.00,2016-07-28 13:10:00,
2016-07-28 09:20:00,72.1,72.1,29.86,NW,316,0.0,0.0,100,0.05,,---,1.21,VWS V15.00,2016-07-28 13:20:00,
2016-07-28 09:30:00,72.1,72.1,29.86,NW,314,0.0,0.0,100,0.02,,---,1.21,VWS V15.00,2016-07-28 13:30:00,
2016-07-28 09:41:00,72.3,72.3,29.86,NW,315,0.0,0.0,100,0.01,,---,1.21,VWS V15.00,2016-07-28 13:41:00,
2016-07-28 09:51:00,72.5,72.5,29.86,NW,315,0.0,0.0,100,0.00,,---,1.21,VWS V15.00,2016-07-28 13:51:00,
2016-07-28 10:00:00,72.8,72.8,29.86,NW,315,0.0,0.0,100,0.00,,---,1.21,VWS V15.00,2016-07-28 14:00:00,
2016-07-28 10:10:00,73.1,73.1,29.86,North,356,0.0,0.0,100,0.00,,---,1.21,VWS V15.00,2016-07-28 14:10:00,
2016-07-28 10:20:00,72.9,72.9,29.87,North,356,0.0,0.0,100,0.00,,---,1.21,VWS V15.00,2016-07-28 14:20:00,
2016-07-28 10:31:00,73.0,73.0,29.87,North,357,0.0,0.0,100,0.00,,---,1.21,VWS V15.00,2016-07-28 14:31:00,
2016-07-28 10:41:00,73.3,73.3,29.86,North,4,0.0,0.0,100,0.00,,---,1.21,VWS V15.00,2016-07-28 14:41:00,
2016-07-28 10:51:00,74.1,74.1,29.86,SE,145,0.0,0.0,100,0.00,,---,1.21,VWS V15.00,2016-07-28 14:51:00,
2016-07-28 11:00:00,73.8,73.8,29.86,SE,132,2.0,3.0,100,0.00,,---,1.21,VWS V15.00,2016-07-28 15:00:00,
2016-07-28 11:10:00,73.9,73.9,29.87,SSE,156,0.0,3.0,100,0.00,,---,1.21,VWS V15.00,2016-07-28 15:10:00,
2016-07-28 11:20:00,74.0,74.0,29.87,SSE,156,0.0,0.0,100,0.00,,---,1.21,VWS V15.00,2016-07-28 15:20:00,
2016-07-28 11:30:00,74.0,74.0,29.87,South,176,0.0,3.0,100,0.00,,---,1.21,VWS V15.00,2016-07-28 15:30:00,
2016-07-28 11:41:00,73.8,73.5,29.87,SE,141,0.0,2.0,99,0.00,,---,1.21,VWS V15.00,2016-07-28 15:41:00,
2016-07-28 11:50:00,73.7,73.4,29.86,SE,134,0.0,0.0,99,0.00,,---,1.21,VWS V15.00,2016-07-28 15:50:00,
2016-07-28 12:00:00,73.5,73.2,29.86,SE,134,0.0,0.0,99,0.00,,---,1.21,VWS V15.00,2016-07-28 16:00:00,
2016-07-28 12:11:00,73.4,73.1,29.86,SE,142,0.0,0.0,99,0.00,,---,1.21,VWS V15.00,2016-07-28 16:11:00,
2016-07-28 12:21:00,73.7,73.4,29.86,SSE,153,0.0,3.0,99,0.00,,---,1.21,VWS V15.00,2016-07-28 16:21:00,
2016-07-28 12:31:00,74.1,73.8,29.86,SSW,195,0.0,4.0,99,0.00,,---,1.21,VWS V15.00,2016-07-28 16:31:00,
2016-07-28 12:41:00,74.6,74.0,29.86,SE,142,0.0,4.0,98,0.00,,---,1.21,VWS V15.00,2016-07-28 16:41:00,
2016-07-28 12:51:00,75.5,74.9,29.86,SE,132,0.0,3.0,98,0.00,,---,1.21,VWS V15.00,2016-07-28 16:51:00,
2016-07-28 13:01:00,75.7,74.5,29.86,South,170,1.0,3.0,96,0.00,,---,1.21,VWS V15.00,2016-07-28 17:01:00,
2016-07-28 13:10:00,76.1,74.2,29.85,SE,129,0.0,4.0,94,0.00,,---,1.21,VWS V15.00,2016-07-28 17:10:00,
2016-07-28 13:20:00,76.6,74.8,29.86,SE,127,0.0,0.0,94,0.00,,---,1.21,VWS V15.00,2016-07-28 17:20:00,
2016-07-28 13:30:00,76.9,74.7,29.85,ESE,122,0.0,0.0,93,0.00,,---,1.21,VWS V15.00,2016-07-28 17:30:00,
2016-07-28 13:40:00,77.3,74.5,29.85,ESE,111,0.0,4.0,91,0.00,,---,1.21,VWS V15.00,2016-07-28 17:40:00,
2016-07-28 13:51:00,78.6,75.1,29.85,WSW,248,0.0,4.0,89,0.00,,---,1.21,VWS V15.00,2016-07-28 17:51:00,
2016-07-28 14:01:00,79.6,75.1,29.84,SE,146,1.0,6.0,86,0.00,,---,1.21,VWS V15.00,2016-07-28 18:01:00,
2016-07-28 14:10:00,80.9,76.0,29.84,SE,135,0.0,3.0,85,0.00,,---,1.21,VWS V15.00,2016-07-28 18:10:00,
2016-07-28 14:20:00,81.6,74.1,29.84,SE,145,2.0,5.0,78,0.00,,---,1.21,VWS V15.00,2016-07-28 18:20:00,
2016-07-28 14:30:00,81.5,73.6,29.84,SE,143,3.0,5.0,77,0.00,,---,1.21,VWS V15.00,2016-07-28 18:30:00,
2016-07-28 14:41:00,82.3,74.8,29.84,WSW,242,0.0,5.0,78,0.00,,---,1.21,VWS V15.00,2016-07-28 18:41:00,
2016-07-28 14:51:00,82.5,73.8,29.84,SW,235,0.0,3.0,75,0.00,,---,1.21,VWS V15.00,2016-07-28 18:51:00,
2016-07-28 15:01:00,82.4,74.1,29.83,SSE,161,0.0,1.0,76,0.00,,---,1.21,VWS V15.00,2016-07-28 19:01:00,
2016-07-28 15:10:00,82.3,74.4,29.83,SE,134,0.0,3.0,77,0.00,,---,1.21,VWS V15.00,2016-07-28 19:10:00,
2016-07-28 15:21:00,82.0,74.5,29.83,SSW,212,0.0,2.0,78,0.00,,---,1.21,VWS V15.00,2016-07-28 19:21:00,